sensor_id;sensor_type;location;lat;lon;timestamp;P1;durP1;ratioP1;P2;durP2;ratioP2
2438;SDS011;14509;47.992;7.848;2024-03-06T00:01:25;5.38;;;2.80;;
2438;SDS011;14509;47.992;7.848;2024-03-06T00:03:27;4.82;;;2.90;;
2438;SDS011;14509;47.992;7.848;2024-03-06T00:05:29;3.10;;;2.80;;
2438;SDS011;14509;47.992;7.848;2024-03-06T00:07:31;2.92;;;2.60;;
2438;SDS011;14509;47.992;7.848;2024-03-06T00:09:31;2.95;;;2.65;;
2438;SDS011;14509;47.992;7.848;2024-03-06T00:11:35;3.17;;;2.88;;
2438;SDS011;14509;47.992;7.848;2024-03-06T00:13:37;3.25;;;2.95;;
2438;SDS011;14509;47.992;7.848;2024-03-06T00:15:38;3.78;;;2.80;;
2438;SDS011;14509;47.992;7.848;2024-03-06T00:17:40;3.03;;;2.73;;
2438;SDS011;14509;47.992;7.848;2024-03-06T00:19:42;3.53;;;2.70;;
2438;SDS011;14509;47.992;7.848;2024-03-06T00:21:44;3.83;;;3.05;;
2438;SDS011;14509;47.992;7.848;2024-03-06T00:23:46;3.42;;;3.13;;
2438;SDS011;14509;47.992;7.848;2024-03-06T00:25:48;3.90;;;3.00;;
2438;SDS011;14509;47.992;7.848;2024-03-06T00:27:51;4.68;;;2.95;;
2438;SDS011;14509;47.992;7.848;2024-03-06T00:29:54;2.90;;;2.60;;
2438;SDS011;14509;47.992;7.848;2024-03-06T00:31:56;3.70;;;3.00;;
2438;SDS011;14509;47.992;7.848;2024-03-06T00:33:57;3.10;;;2.60;;
2438;SDS011;14509;47.992;7.848;2024-03-06T00:35:58;3.75;;;2.55;;
2438;SDS011;14509;47.992;7.848;2024-03-06T00:38:00;4.00;;;2.80;;
2438;SDS011;14509;47.992;7.848;2024-03-06T00:40:03;3.78;;;2.33;;
2438;SDS011;14509;47.992;7.848;2024-03-06T00:42:04;2.80;;;2.20;;
2438;SDS011;14509;47.992;7.848;2024-03-06T00:44:07;2.40;;;2.20;;
2438;SDS011;14509;47.992;7.848;2024-03-06T00:46:08;2.55;;;2.30;;
2438;SDS011;14509;47.992;7.848;2024-03-06T00:48:10;3.22;;;2.60;;
2438;SDS011;14509;47.992;7.848;2024-03-06T00:50:11;3.83;;;2.70;;
2438;SDS011;14509;47.992;7.848;2024-03-06T00:52:12;3.45;;;2.53;;
2438;SDS011;14509;47.992;7.848;2024-03-06T00:54:14;3.97;;;2.20;;
2438;SDS011;14509;47.992;7.848;2024-03-06T00:56:16;2.85;;;2.20;;
2438;SDS011;14509;47.992;7.848;2024-03-06T00:58:18;2.38;;;2.17;;
2438;SDS011;14509;47.992;7.848;2024-03-06T01:00:21;2.70;;;2.00;;
2438;SDS011;14509;47.992;7.848;2024-03-06T01:02:23;4.65;;;2.05;;
2438;SDS011;14509;47.992;7.848;2024-03-06T01:04:25;1.98;;;1.73;;
2438;SDS011;14509;47.992;7.848;2024-03-06T01:06:27;2.75;;;2.20;;
2438;SDS011;14509;47.992;7.848;2024-03-06T01:08:29;2.53;;;1.90;;
2438;SDS011;14509;47.992;7.848;2024-03-06T01:10:32;2.50;;;2.00;;
2438;SDS011;14509;47.992;7.848;2024-03-06T01:12:33;2.85;;;1.98;;
2438;SDS011;14509;47.992;7.848;2024-03-06T01:14:35;2.30;;;2.10;;
2438;SDS011;14509;47.992;7.848;2024-03-06T01:16:38;2.75;;;2.30;;
2438;SDS011;14509;47.992;7.848;2024-03-06T01:18:40;2.50;;;2.30;;
2438;SDS011;14509;47.992;7.848;2024-03-06T01:20:41;2.75;;;2.20;;
2438;SDS011;14509;47.992;7.848;2024-03-06T01:22:43;4.00;;;2.40;;
2438;SDS011;14509;47.992;7.848;2024-03-06T01:24:43;3.40;;;2.00;;
2438;SDS011;14509;47.992;7.848;2024-03-06T01:26:49;2.50;;;2.30;;
2438;SDS011;14509;47.992;7.848;2024-03-06T01:28:50;3.22;;;2.38;;
2438;SDS011;14509;47.992;7.848;2024-03-06T01:30:53;3.85;;;2.20;;
2438;SDS011;14509;47.992;7.848;2024-03-06T01:32:56;2.70;;;2.10;;
2438;SDS011;14509;47.992;7.848;2024-03-06T01:34:57;3.13;;;2.35;;
2438;SDS011;14509;47.992;7.848;2024-03-06T01:36:59;3.50;;;2.50;;
2438;SDS011;14509;47.992;7.848;2024-03-06T01:39:01;3.45;;;2.60;;
2438;SDS011;14509;47.992;7.848;2024-03-06T01:41:03;2.80;;;2.50;;
2438;SDS011;14509;47.992;7.848;2024-03-06T01:43:05;3.50;;;2.97;;
2438;SDS011;14509;47.992;7.848;2024-03-06T01:45:07;3.37;;;2.90;;
2438;SDS011;14509;47.992;7.848;2024-03-06T01:47:09;3.40;;;2.45;;
2438;SDS011;14509;47.992;7.848;2024-03-06T01:49:12;4.65;;;3.00;;
2438;SDS011;14509;47.992;7.848;2024-03-06T01:51:16;2.53;;;2.33;;
2438;SDS011;14509;47.992;7.848;2024-03-06T01:53:18;3.80;;;2.30;;
2438;SDS011;14509;47.992;7.848;2024-03-06T01:55:19;3.30;;;2.58;;
2438;SDS011;14509;47.992;7.848;2024-03-06T01:57:23;3.78;;;3.47;;
2438;SDS011;14509;47.992;7.848;2024-03-06T01:59:24;2.90;;;2.50;;
2438;SDS011;14509;47.992;7.848;2024-03-06T02:01:27;2.92;;;2.60;;
2438;SDS011;14509;47.992;7.848;2024-03-06T02:03:30;2.80;;;2.60;;
2438;SDS011;14509;47.992;7.848;2024-03-06T02:05:34;4.65;;;2.80;;
2438;SDS011;14509;47.992;7.848;2024-03-06T02:07:37;3.10;;;2.80;;
2438;SDS011;14509;47.992;7.848;2024-03-06T02:09:40;2.80;;;2.60;;
2438;SDS011;14509;47.992;7.848;2024-03-06T02:11:42;4.37;;;2.97;;
2438;SDS011;14509;47.992;7.848;2024-03-06T02:13:46;5.43;;;3.30;;
2438;SDS011;14509;47.992;7.848;2024-03-06T02:15:48;3.08;;;2.60;;
2438;SDS011;14509;47.992;7.848;2024-03-06T02:17:50;4.28;;;3.00;;
2438;SDS011;14509;47.992;7.848;2024-03-06T02:19:52;3.90;;;2.83;;
2438;SDS011;14509;47.992;7.848;2024-03-06T02:21:55;3.10;;;2.80;;
2438;SDS011;14509;47.992;7.848;2024-03-06T02:23:57;4.40;;;2.88;;
2438;SDS011;14509;47.992;7.848;2024-03-06T02:25:59;3.28;;;2.50;;
2438;SDS011;14509;47.992;7.848;2024-03-06T02:28:02;3.25;;;2.60;;
2438;SDS011;14509;47.992;7.848;2024-03-06T02:30:04;2.58;;;2.33;;
2438;SDS011;14509;47.992;7.848;2024-03-06T02:32:07;2.67;;;2.47;;
2438;SDS011;14509;47.992;7.848;2024-03-06T02:34:08;3.10;;;2.60;;
2438;SDS011;14509;47.992;7.848;2024-03-06T02:36:10;3.40;;;2.60;;
2438;SDS011;14509;47.992;7.848;2024-03-06T02:38:13;3.58;;;3.28;;
2438;SDS011;14509;47.992;7.848;2024-03-06T02:40:15;4.32;;;3.10;;
2438;SDS011;14509;47.992;7.848;2024-03-06T02:42:17;3.50;;;3.20;;
2438;SDS011;14509;47.992;7.848;2024-03-06T02:44:19;4.05;;;3.70;;
2438;SDS011;14509;47.992;7.848;2024-03-06T02:46:20;4.07;;;3.67;;
2438;SDS011;14509;47.992;7.848;2024-03-06T02:48:21;4.90;;;4.40;;
2438;SDS011;14509;47.992;7.848;2024-03-06T02:50:23;4.63;;;4.10;;
2438;SDS011;14509;47.992;7.848;2024-03-06T02:52:25;3.85;;;3.42;;
2438;SDS011;14509;47.992;7.848;2024-03-06T02:54:28;3.72;;;3.30;;
2438;SDS011;14509;47.992;7.848;2024-03-06T02:56:30;4.20;;;3.80;;
2438;SDS011;14509;47.992;7.848;2024-03-06T02:58:31;4.33;;;3.70;;
2438;SDS011;14509;47.992;7.848;2024-03-06T03:00:33;3.90;;;3.60;;
2438;SDS011;14509;47.992;7.848;2024-03-06T03:02:34;4.95;;;3.60;;
2438;SDS011;14509;47.992;7.848;2024-03-06T03:04:35;4.07;;;3.67;;
2438;SDS011;14509;47.992;7.848;2024-03-06T03:06:37;5.15;;;4.45;;
2438;SDS011;14509;47.992;7.848;2024-03-06T03:08:39;5.05;;;3.92;;
2438;SDS011;14509;47.992;7.848;2024-03-06T03:10:42;4.60;;;3.97;;
2438;SDS011;14509;47.992;7.848;2024-03-06T03:12:45;5.28;;;4.45;;
2438;SDS011;14509;47.992;7.848;2024-03-06T03:14:47;6.15;;;4.90;;
2438;SDS011;14509;47.992;7.848;2024-03-06T03:16:48;6.15;;;5.03;;
2438;SDS011;14509;47.992;7.848;2024-03-06T03:18:50;6.03;;;4.90;;
2438;SDS011;14509;47.992;7.848;2024-03-06T03:20:51;4.80;;;4.40;;
2438;SDS011;14509;47.992;7.848;2024-03-06T03:22:53;5.60;;;4.80;;
2438;SDS011;14509;47.992;7.848;2024-03-06T03:24:55;5.38;;;4.88;;
2438;SDS011;14509;47.992;7.848;2024-03-06T03:26:58;5.03;;;4.50;;
2438;SDS011;14509;47.992;7.848;2024-03-06T03:29:01;5.60;;;4.85;;
2438;SDS011;14509;47.992;7.848;2024-03-06T03:31:03;5.80;;;5.30;;
2438;SDS011;14509;47.992;7.848;2024-03-06T03:33:05;4.93;;;4.43;;
2438;SDS011;14509;47.992;7.848;2024-03-06T03:35:07;5.10;;;4.70;;
2438;SDS011;14509;47.992;7.848;2024-03-06T03:37:09;5.40;;;4.68;;
2438;SDS011;14509;47.992;7.848;2024-03-06T03:39:12;6.10;;;5.07;;
2438;SDS011;14509;47.992;7.848;2024-03-06T03:41:16;6.30;;;4.80;;
2438;SDS011;14509;47.992;7.848;2024-03-06T03:43:19;6.50;;;4.70;;
2438;SDS011;14509;47.992;7.848;2024-03-06T03:45:21;6.35;;;4.30;;
2438;SDS011;14509;47.992;7.848;2024-03-06T03:47:22;5.50;;;5.00;;
2438;SDS011;14509;47.992;7.848;2024-03-06T03:49:24;5.13;;;4.63;;
2438;SDS011;14509;47.992;7.848;2024-03-06T03:51:26;4.78;;;4.10;;
2438;SDS011;14509;47.992;7.848;2024-03-06T03:53:28;4.60;;;4.10;;
2438;SDS011;14509;47.992;7.848;2024-03-06T03:55:30;6.45;;;4.40;;
2438;SDS011;14509;47.992;7.848;2024-03-06T03:57:32;5.23;;;3.60;;
2438;SDS011;14509;47.992;7.848;2024-03-06T03:59:34;4.80;;;4.30;;
2438;SDS011;14509;47.992;7.848;2024-03-06T04:01:37;4.10;;;3.70;;
2438;SDS011;14509;47.992;7.848;2024-03-06T04:03:39;5.25;;;4.20;;
2438;SDS011;14509;47.992;7.848;2024-03-06T04:05:42;4.72;;;3.70;;
2438;SDS011;14509;47.992;7.848;2024-03-06T04:07:44;4.90;;;4.20;;
2438;SDS011;14509;47.992;7.848;2024-03-06T04:09:46;5.05;;;3.83;;
2438;SDS011;14509;47.992;7.848;2024-03-06T04:11:47;5.85;;;4.43;;
2438;SDS011;14509;47.992;7.848;2024-03-06T04:13:49;4.80;;;4.30;;
2438;SDS011;14509;47.992;7.848;2024-03-06T04:15:52;4.70;;;3.90;;
2438;SDS011;14509;47.992;7.848;2024-03-06T04:17:54;4.20;;;2.92;;
2438;SDS011;14509;47.992;7.848;2024-03-06T04:19:56;3.15;;;2.85;;
2438;SDS011;14509;47.992;7.848;2024-03-06T04:21:58;3.42;;;2.72;;
2438;SDS011;14509;47.992;7.848;2024-03-06T04:24:00;2.90;;;2.70;;
2438;SDS011;14509;47.992;7.848;2024-03-06T04:26:02;3.30;;;2.70;;
2438;SDS011;14509;47.992;7.848;2024-03-06T04:28:03;2.58;;;2.17;;
2438;SDS011;14509;47.992;7.848;2024-03-06T04:30:08;3.90;;;2.30;;
2438;SDS011;14509;47.992;7.848;2024-03-06T04:32:11;2.72;;;1.95;;
2438;SDS011;14509;47.992;7.848;2024-03-06T04:34:13;2.88;;;2.30;;
2438;SDS011;14509;47.992;7.848;2024-03-06T04:36:15;4.30;;;1.80;;
2438;SDS011;14509;47.992;7.848;2024-03-06T04:38:17;2.70;;;1.90;;
2438;SDS011;14509;47.992;7.848;2024-03-06T04:40:18;2.60;;;2.00;;
2438;SDS011;14509;47.992;7.848;2024-03-06T04:42:22;3.20;;;1.90;;
2438;SDS011;14509;47.992;7.848;2024-03-06T04:44:24;4.23;;;2.00;;
2438;SDS011;14509;47.992;7.848;2024-03-06T04:46:26;2.73;;;1.53;;
2438;SDS011;14509;47.992;7.848;2024-03-06T04:48:29;3.63;;;2.10;;
2438;SDS011;14509;47.992;7.848;2024-03-06T04:50:31;2.58;;;2.00;;
2438;SDS011;14509;47.992;7.848;2024-03-06T04:52:33;1.73;;;1.50;;
2438;SDS011;14509;47.992;7.848;2024-03-06T04:54:36;2.95;;;1.95;;
2438;SDS011;14509;47.992;7.848;2024-03-06T04:56:37;2.20;;;1.60;;
2438;SDS011;14509;47.992;7.848;2024-03-06T04:58:40;2.15;;;1.88;;
2438;SDS011;14509;47.992;7.848;2024-03-06T05:00:42;3.80;;;2.38;;
2438;SDS011;14509;47.992;7.848;2024-03-06T05:02:43;2.40;;;1.90;;
2438;SDS011;14509;47.992;7.848;2024-03-06T05:04:46;2.67;;;2.13;;
2438;SDS011;14509;47.992;7.848;2024-03-06T05:06:47;2.00;;;1.57;;
2438;SDS011;14509;47.992;7.848;2024-03-06T05:08:49;2.15;;;1.95;;
2438;SDS011;14509;47.992;7.848;2024-03-06T05:10:51;5.35;;;3.42;;
2438;SDS011;14509;47.992;7.848;2024-03-06T05:12:53;2.78;;;2.25;;
2438;SDS011;14509;47.992;7.848;2024-03-06T05:14:55;3.60;;;1.92;;
2438;SDS011;14509;47.992;7.848;2024-03-06T05:16:56;2.38;;;1.80;;
2438;SDS011;14509;47.992;7.848;2024-03-06T05:18:58;2.20;;;1.60;;
2438;SDS011;14509;47.992;7.848;2024-03-06T05:21:01;2.13;;;1.55;;
2438;SDS011;14509;47.992;7.848;2024-03-06T05:23:03;1.80;;;1.42;;
2438;SDS011;14509;47.992;7.848;2024-03-06T05:25:06;2.78;;;1.85;;
2438;SDS011;14509;47.992;7.848;2024-03-06T05:27:08;3.03;;;1.85;;
2438;SDS011;14509;47.992;7.848;2024-03-06T05:29:13;1.85;;;1.67;;
2438;SDS011;14509;47.992;7.848;2024-03-06T05:31:15;2.30;;;1.65;;
2438;SDS011;14509;47.992;7.848;2024-03-06T05:33:19;1.73;;;1.50;;
2438;SDS011;14509;47.992;7.848;2024-03-06T05:35:19;2.20;;;1.80;;
2438;SDS011;14509;47.992;7.848;2024-03-06T05:37:23;1.77;;;1.58;;
2438;SDS011;14509;47.992;7.848;2024-03-06T05:39:24;2.25;;;1.90;;
2438;SDS011;14509;47.992;7.848;2024-03-06T05:41:25;2.80;;;2.20;;
2438;SDS011;14509;47.992;7.848;2024-03-06T05:43:27;3.45;;;2.05;;
2438;SDS011;14509;47.992;7.848;2024-03-06T05:45:29;1.60;;;1.40;;
2438;SDS011;14509;47.992;7.848;2024-03-06T05:47:31;1.70;;;1.60;;
2438;SDS011;14509;47.992;7.848;2024-03-06T05:49:32;2.58;;;2.03;;
2438;SDS011;14509;47.992;7.848;2024-03-06T05:51:34;2.83;;;1.45;;
2438;SDS011;14509;47.992;7.848;2024-03-06T05:53:37;3.20;;;1.63;;
2438;SDS011;14509;47.992;7.848;2024-03-06T05:55:40;2.10;;;1.40;;
2438;SDS011;14509;47.992;7.848;2024-03-06T05:57:41;1.90;;;1.70;;
2438;SDS011;14509;47.992;7.848;2024-03-06T05:59:45;3.00;;;1.70;;
2438;SDS011;14509;47.992;7.848;2024-03-06T06:01:47;2.65;;;1.60;;
2438;SDS011;14509;47.992;7.848;2024-03-06T06:03:48;1.90;;;1.50;;
2438;SDS011;14509;47.992;7.848;2024-03-06T06:05:50;2.08;;;1.30;;
2438;SDS011;14509;47.992;7.848;2024-03-06T06:07:55;2.55;;;1.70;;
2438;SDS011;14509;47.992;7.848;2024-03-06T06:09:58;1.90;;;1.70;;
2438;SDS011;14509;47.992;7.848;2024-03-06T06:12:00;2.38;;;1.80;;
2438;SDS011;14509;47.992;7.848;2024-03-06T06:14:02;2.28;;;1.70;;
2438;SDS011;14509;47.992;7.848;2024-03-06T06:16:05;1.48;;;1.38;;
2438;SDS011;14509;47.992;7.848;2024-03-06T06:18:07;2.78;;;1.70;;
2438;SDS011;14509;47.992;7.848;2024-03-06T06:20:09;3.08;;;1.83;;
2438;SDS011;14509;47.992;7.848;2024-03-06T06:22:14;4.65;;;2.05;;
2438;SDS011;14509;47.992;7.848;2024-03-06T06:24:16;2.55;;;1.90;;
2438;SDS011;14509;47.992;7.848;2024-03-06T06:26:19;3.10;;;2.60;;
2438;SDS011;14509;47.992;7.848;2024-03-06T06:28:21;5.50;;;4.43;;
2438;SDS011;14509;47.992;7.848;2024-03-06T06:30:24;4.40;;;3.50;;
2438;SDS011;14509;47.992;7.848;2024-03-06T06:32:26;3.70;;;2.90;;
2438;SDS011;14509;47.992;7.848;2024-03-06T06:34:27;3.00;;;2.70;;
2438;SDS011;14509;47.992;7.848;2024-03-06T06:36:29;3.13;;;2.03;;
2438;SDS011;14509;47.992;7.848;2024-03-06T06:38:31;2.50;;;1.90;;
2438;SDS011;14509;47.992;7.848;2024-03-06T06:40:33;3.10;;;1.98;;
2438;SDS011;14509;47.992;7.848;2024-03-06T06:42:37;2.63;;;1.90;;
2438;SDS011;14509;47.992;7.848;2024-03-06T06:44:44;2.13;;;1.90;;
2438;SDS011;14509;47.992;7.848;2024-03-06T06:46:46;3.30;;;1.80;;
2438;SDS011;14509;47.992;7.848;2024-03-06T06:48:48;2.28;;;1.70;;
2438;SDS011;14509;47.992;7.848;2024-03-06T06:50:50;1.90;;;1.70;;
2438;SDS011;14509;47.992;7.848;2024-03-06T06:52:51;3.80;;;2.53;;
2438;SDS011;14509;47.992;7.848;2024-03-06T06:54:53;2.67;;;2.23;;
2438;SDS011;14509;47.992;7.848;2024-03-06T06:56:53;3.05;;;2.10;;
2438;SDS011;14509;47.992;7.848;2024-03-06T06:58:57;3.08;;;2.33;;
2438;SDS011;14509;47.992;7.848;2024-03-06T07:00:59;3.25;;;2.38;;
2438;SDS011;14509;47.992;7.848;2024-03-06T07:03:01;3.22;;;2.90;;
2438;SDS011;14509;47.992;7.848;2024-03-06T07:05:07;3.85;;;2.78;;
2438;SDS011;14509;47.992;7.848;2024-03-06T07:07:11;3.20;;;2.40;;
2438;SDS011;14509;47.992;7.848;2024-03-06T07:09:14;3.65;;;2.40;;
2438;SDS011;14509;47.992;7.848;2024-03-06T07:11:16;4.43;;;2.70;;
2438;SDS011;14509;47.992;7.848;2024-03-06T07:13:18;4.15;;;2.50;;
2438;SDS011;14509;47.992;7.848;2024-03-06T07:15:21;3.53;;;2.97;;
2438;SDS011;14509;47.992;7.848;2024-03-06T07:17:23;3.40;;;2.40;;
2438;SDS011;14509;47.992;7.848;2024-03-06T07:19:25;3.10;;;2.70;;
2438;SDS011;14509;47.992;7.848;2024-03-06T07:21:27;2.20;;;1.90;;
2438;SDS011;14509;47.992;7.848;2024-03-06T07:23:28;2.60;;;2.00;;
2438;SDS011;14509;47.992;7.848;2024-03-06T07:25:30;2.92;;;2.40;;
2438;SDS011;14509;47.992;7.848;2024-03-06T07:27:32;2.75;;;2.30;;
2438;SDS011;14509;47.992;7.848;2024-03-06T07:29:34;2.47;;;2.20;;
2438;SDS011;14509;47.992;7.848;2024-03-06T07:31:36;2.53;;;2.25;;
2438;SDS011;14509;47.992;7.848;2024-03-06T07:33:38;3.78;;;2.78;;
2438;SDS011;14509;47.992;7.848;2024-03-06T07:35:40;2.63;;;2.10;;
2438;SDS011;14509;47.992;7.848;2024-03-06T07:37:42;2.33;;;2.13;;
2438;SDS011;14509;47.992;7.848;2024-03-06T07:39:44;3.80;;;2.30;;
2438;SDS011;14509;47.992;7.848;2024-03-06T07:41:46;4.28;;;2.58;;
2438;SDS011;14509;47.992;7.848;2024-03-06T07:43:48;1.70;;;1.50;;
2438;SDS011;14509;47.992;7.848;2024-03-06T07:45:50;3.90;;;1.20;;
2438;SDS011;14509;47.992;7.848;2024-03-06T07:47:53;2.28;;;1.30;;
2438;SDS011;14509;47.992;7.848;2024-03-06T07:49:55;1.80;;;1.40;;
2438;SDS011;14509;47.992;7.848;2024-03-06T07:52:01;2.33;;;2.13;;
2438;SDS011;14509;47.992;7.848;2024-03-06T07:54:02;2.08;;;1.40;;
2438;SDS011;14509;47.992;7.848;2024-03-06T07:56:04;1.52;;;1.35;;
2438;SDS011;14509;47.992;7.848;2024-03-06T07:58:06;2.00;;;1.50;;
2438;SDS011;14509;47.992;7.848;2024-03-06T08:00:09;2.92;;;2.53;;
2438;SDS011;14509;47.992;7.848;2024-03-06T08:02:15;1.95;;;1.50;;
2438;SDS011;14509;47.992;7.848;2024-03-06T08:04:18;1.90;;;1.50;;
2438;SDS011;14509;47.992;7.848;2024-03-06T08:06:20;2.40;;;1.50;;
2438;SDS011;14509;47.992;7.848;2024-03-06T08:08:22;4.00;;;1.60;;
2438;SDS011;14509;47.992;7.848;2024-03-06T08:10:24;2.00;;;1.80;;
2438;SDS011;14509;47.992;7.848;2024-03-06T08:12:26;1.23;;;1.13;;
2438;SDS011;14509;47.992;7.848;2024-03-06T08:14:28;1.50;;;1.20;;
2438;SDS011;14509;47.992;7.848;2024-03-06T08:16:30;1.60;;;1.40;;
2438;SDS011;14509;47.992;7.848;2024-03-06T08:18:33;1.52;;;1.42;;
2438;SDS011;14509;47.992;7.848;2024-03-06T08:20:37;4.38;;;1.45;;
2438;SDS011;14509;47.992;7.848;2024-03-06T08:22:41;5.33;;;1.50;;
2438;SDS011;14509;47.992;7.848;2024-03-06T08:24:43;2.25;;;1.10;;
2438;SDS011;14509;47.992;7.848;2024-03-06T08:26:45;2.28;;;1.60;;
2438;SDS011;14509;47.992;7.848;2024-03-06T08:28:48;2.10;;;1.10;;
2438;SDS011;14509;47.992;7.848;2024-03-06T08:30:51;1.90;;;1.70;;
2438;SDS011;14509;47.992;7.848;2024-03-06T08:32:53;2.03;;;1.45;;
2438;SDS011;14509;47.992;7.848;2024-03-06T08:34:54;1.50;;;1.20;;
2438;SDS011;14509;47.992;7.848;2024-03-06T08:36:57;2.47;;;1.30;;
2438;SDS011;14509;47.992;7.848;2024-03-06T08:38:59;1.90;;;1.52;;
2438;SDS011;14509;47.992;7.848;2024-03-06T08:41:04;1.45;;;1.20;;
2438;SDS011;14509;47.992;7.848;2024-03-06T08:43:06;1.67;;;1.58;;
2438;SDS011;14509;47.992;7.848;2024-03-06T08:45:09;1.40;;;1.30;;
2438;SDS011;14509;47.992;7.848;2024-03-06T08:47:11;2.30;;;1.90;;
2438;SDS011;14509;47.992;7.848;2024-03-06T08:49:13;1.60;;;1.20;;
2438;SDS011;14509;47.992;7.848;2024-03-06T08:51:15;3.20;;;1.35;;
2438;SDS011;14509;47.992;7.848;2024-03-06T08:53:19;2.10;;;1.75;;
2438;SDS011;14509;47.992;7.848;2024-03-06T08:55:21;1.63;;;1.40;;
2438;SDS011;14509;47.992;7.848;2024-03-06T08:57:23;2.40;;;2.10;;
2438;SDS011;14509;47.992;7.848;2024-03-06T08:59:26;2.20;;;1.70;;
2438;SDS011;14509;47.992;7.848;2024-03-06T09:01:28;3.90;;;2.40;;
2438;SDS011;14509;47.992;7.848;2024-03-06T09:03:30;3.22;;;2.35;;
2438;SDS011;14509;47.992;7.848;2024-03-06T09:05:32;2.20;;;1.73;;
2438;SDS011;14509;47.992;7.848;2024-03-06T09:07:34;2.80;;;2.10;;
2438;SDS011;14509;47.992;7.848;2024-03-06T09:09:39;3.10;;;1.85;;
2438;SDS011;14509;47.992;7.848;2024-03-06T09:11:42;2.45;;;2.25;;
2438;SDS011;14509;47.992;7.848;2024-03-06T09:13:44;2.47;;;2.10;;
2438;SDS011;14509;47.992;7.848;2024-03-06T09:15:45;1.92;;;1.58;;
2438;SDS011;14509;47.992;7.848;2024-03-06T09:17:48;2.47;;;1.65;;
2438;SDS011;14509;47.992;7.848;2024-03-06T09:19:50;3.20;;;1.60;;
2438;SDS011;14509;47.992;7.848;2024-03-06T09:21:51;2.45;;;1.80;;
2438;SDS011;14509;47.992;7.848;2024-03-06T09:23:53;2.63;;;2.00;;
2438;SDS011;14509;47.992;7.848;2024-03-06T09:25:56;2.80;;;1.70;;
2438;SDS011;14509;47.992;7.848;2024-03-06T09:27:58;3.05;;;1.95;;
2438;SDS011;14509;47.992;7.848;2024-03-06T09:30:05;2.40;;;2.03;;
2438;SDS011;14509;47.992;7.848;2024-03-06T09:32:09;3.03;;;2.30;;
2438;SDS011;14509;47.992;7.848;2024-03-06T09:34:13;2.78;;;2.55;;
2438;SDS011;14509;47.992;7.848;2024-03-06T09:36:15;2.42;;;1.88;;
2438;SDS011;14509;47.992;7.848;2024-03-06T09:38:16;3.13;;;2.03;;
2438;SDS011;14509;47.992;7.848;2024-03-06T09:40:22;4.38;;;3.03;;
2438;SDS011;14509;47.992;7.848;2024-03-06T09:42:27;4.68;;;3.47;;
2438;SDS011;14509;47.992;7.848;2024-03-06T09:44:29;2.30;;;1.80;;
2438;SDS011;14509;47.992;7.848;2024-03-06T09:46:31;2.60;;;1.20;;
2438;SDS011;14509;47.992;7.848;2024-03-06T09:48:34;1.60;;;1.50;;
2438;SDS011;14509;47.992;7.848;2024-03-06T09:50:37;2.80;;;2.38;;
2438;SDS011;14509;47.992;7.848;2024-03-06T09:52:45;3.50;;;2.13;;
2438;SDS011;14509;47.992;7.848;2024-03-06T09:54:50;1.30;;;1.20;;
2438;SDS011;14509;47.992;7.848;2024-03-06T09:56:52;1.48;;;1.10;;
2438;SDS011;14509;47.992;7.848;2024-03-06T09:58:57;2.65;;;2.25;;
2438;SDS011;14509;47.992;7.848;2024-03-06T10:00:59;4.70;;;2.60;;
2438;SDS011;14509;47.992;7.848;2024-03-06T10:03:03;2.92;;;2.03;;
2438;SDS011;14509;47.992;7.848;2024-03-06T10:05:20;3.20;;;1.95;;
2438;SDS011;14509;47.992;7.848;2024-03-06T10:07:22;2.60;;;1.90;;
2438;SDS011;14509;47.992;7.848;2024-03-06T10:09:24;4.10;;;2.88;;
2438;SDS011;14509;47.992;7.848;2024-03-06T10:11:26;5.45;;;3.75;;
2438;SDS011;14509;47.992;7.848;2024-03-06T10:13:28;7.05;;;4.00;;
2438;SDS011;14509;47.992;7.848;2024-03-06T10:15:34;2.20;;;1.70;;
2438;SDS011;14509;47.992;7.848;2024-03-06T10:17:37;5.28;;;2.55;;
2438;SDS011;14509;47.992;7.848;2024-03-06T10:19:38;3.45;;;2.22;;
2438;SDS011;14509;47.992;7.848;2024-03-06T10:21:40;1.77;;;1.60;;
2438;SDS011;14509;47.992;7.848;2024-03-06T10:23:44;1.90;;;1.70;;
2438;SDS011;14509;47.992;7.848;2024-03-06T10:25:48;2.63;;;1.95;;
2438;SDS011;14509;47.992;7.848;2024-03-06T10:30:12;2.83;;;2.03;;
2438;SDS011;14509;47.992;7.848;2024-03-06T10:32:17;3.08;;;2.08;;
2438;SDS011;14509;47.992;7.848;2024-03-06T10:34:21;2.03;;;1.15;;
2438;SDS011;14509;47.992;7.848;2024-03-06T10:36:25;3.10;;;1.50;;
2438;SDS011;14509;47.992;7.848;2024-03-06T10:38:27;1.73;;;1.23;;
2438;SDS011;14509;47.992;7.848;2024-03-06T10:40:36;3.00;;;2.20;;
2438;SDS011;14509;47.992;7.848;2024-03-06T10:42:37;2.13;;;1.50;;
2438;SDS011;14509;47.992;7.848;2024-03-06T10:44:42;3.22;;;2.15;;
2438;SDS011;14509;47.992;7.848;2024-03-06T10:46:51;2.30;;;1.20;;
2438;SDS011;14509;47.992;7.848;2024-03-06T10:48:59;1.80;;;1.30;;
2438;SDS011;14509;47.992;7.848;2024-03-06T10:51:03;2.40;;;1.42;;
2438;SDS011;14509;47.992;7.848;2024-03-06T10:53:08;2.45;;;1.00;;
2438;SDS011;14509;47.992;7.848;2024-03-06T10:55:11;2.13;;;1.00;;
2438;SDS011;14509;47.992;7.848;2024-03-06T10:57:15;3.33;;;1.45;;
2438;SDS011;14509;47.992;7.848;2024-03-06T10:59:18;4.47;;;1.70;;
2438;SDS011;14509;47.992;7.848;2024-03-06T11:01:22;2.40;;;1.30;;
2438;SDS011;14509;47.992;7.848;2024-03-06T11:03:25;2.92;;;1.98;;
2438;SDS011;14509;47.992;7.848;2024-03-06T11:05:32;2.47;;;1.40;;
2438;SDS011;14509;47.992;7.848;2024-03-06T11:07:34;3.65;;;1.75;;
2438;SDS011;14509;47.992;7.848;2024-03-06T11:09:37;2.10;;;1.60;;
2438;SDS011;14509;47.992;7.848;2024-03-06T11:11:47;2.08;;;1.50;;
2438;SDS011;14509;47.992;7.848;2024-03-06T11:13:49;2.88;;;1.30;;
2438;SDS011;14509;47.992;7.848;2024-03-06T11:15:51;1.50;;;1.02;;
2438;SDS011;14509;47.992;7.848;2024-03-06T11:17:58;2.50;;;1.13;;
2438;SDS011;14509;47.992;7.848;2024-03-06T11:25:09;1.58;;;1.25;;
2438;SDS011;14509;47.992;7.848;2024-03-06T11:28:03;2.50;;;1.23;;
2438;SDS011;14509;47.992;7.848;2024-03-06T11:30:08;2.30;;;1.60;;
2438;SDS011;14509;47.992;7.848;2024-03-06T11:32:13;2.08;;;1.88;;
2438;SDS011;14509;47.992;7.848;2024-03-06T11:34:16;2.45;;;1.40;;
2438;SDS011;14509;47.992;7.848;2024-03-06T11:36:17;2.50;;;1.30;;
2438;SDS011;14509;47.992;7.848;2024-03-06T11:38:20;5.65;;;1.70;;
2438;SDS011;14509;47.992;7.848;2024-03-06T11:40:25;2.88;;;1.50;;
2438;SDS011;14509;47.992;7.848;2024-03-06T11:42:32;2.35;;;1.50;;
2438;SDS011;14509;47.992;7.848;2024-03-06T11:44:36;2.40;;;1.60;;
2438;SDS011;14509;47.992;7.848;2024-03-06T11:46:41;2.00;;;1.40;;
2438;SDS011;14509;47.992;7.848;2024-03-06T11:48:43;2.77;;;2.10;;
2438;SDS011;14509;47.992;7.848;2024-03-06T11:50:52;3.85;;;1.90;;
2438;SDS011;14509;47.992;7.848;2024-03-06T11:52:54;3.03;;;1.50;;
2438;SDS011;14509;47.992;7.848;2024-03-06T11:54:56;2.75;;;1.80;;
2438;SDS011;14509;47.992;7.848;2024-03-06T11:56:59;6.10;;;2.80;;
2438;SDS011;14509;47.992;7.848;2024-03-06T11:59:03;4.00;;;2.08;;
2438;SDS011;14509;47.992;7.848;2024-03-06T12:01:06;4.20;;;3.03;;
2438;SDS011;14509;47.992;7.848;2024-03-06T12:03:08;3.85;;;2.33;;
2438;SDS011;14509;47.992;7.848;2024-03-06T12:05:10;2.85;;;1.27;;
2438;SDS011;14509;47.992;7.848;2024-03-06T12:07:13;7.30;;;5.78;;
2438;SDS011;14509;47.992;7.848;2024-03-06T12:09:16;4.13;;;3.00;;
2438;SDS011;14509;47.992;7.848;2024-03-06T12:11:18;3.00;;;1.27;;
2438;SDS011;14509;47.992;7.848;2024-03-06T12:13:22;4.75;;;1.90;;
2438;SDS011;14509;47.992;7.848;2024-03-06T12:15:24;2.60;;;1.50;;
2438;SDS011;14509;47.992;7.848;2024-03-06T12:17:26;3.90;;;1.48;;
2438;SDS011;14509;47.992;7.848;2024-03-06T12:19:31;1.80;;;1.00;;
2438;SDS011;14509;47.992;7.848;2024-03-06T12:21:34;2.22;;;1.40;;
2438;SDS011;14509;47.992;7.848;2024-03-06T12:23:38;2.60;;;1.40;;
2438;SDS011;14509;47.992;7.848;2024-03-06T12:25:40;2.30;;;1.60;;
2438;SDS011;14509;47.992;7.848;2024-03-06T12:27:41;4.53;;;2.95;;
2438;SDS011;14509;47.992;7.848;2024-03-06T12:29:45;2.58;;;1.50;;
2438;SDS011;14509;47.992;7.848;2024-03-06T12:31:47;2.60;;;1.80;;
2438;SDS011;14509;47.992;7.848;2024-03-06T12:33:56;2.88;;;1.70;;
2438;SDS011;14509;47.992;7.848;2024-03-06T12:36:02;2.72;;;1.20;;
2438;SDS011;14509;47.992;7.848;2024-03-06T12:38:11;4.50;;;2.50;;